Time;durP1;ratioP1;P1;durP2;ratioP2;P2;SDS_P1;SDS_P2;PMS_P1;PMS_P2;Temp;Humidity;BMP_temperature;BMP_pressure;BME280_temperature;BME280_humidity;BME280_pressure;Samples;Min_cycle;Max_cycle;Signal;HPM_P1;HPM_P2
2020/12/12 00:00:01;;;;;;;16.60;10.45;;;4.40;99.90;;;;;;4873072;29;20025;-89
2020/12/12 00:02:31;;;;;;;17.60;11.07;;;4.40;99.90;;;;;;4900879;29;20089;-88
2020/12/12 00:05:03;;;;;;;18.58;11.23;;;4.50;99.90;;;;;;4906671;29;20057;-87
2020/12/12 00:07:30;;;;;;;15.57;10.32;;;4.40;99.90;;;;;;4916307;29;20040;-89
2020/12/12 00:09:57;;;;;;;17.48;11.40;;;4.50;99.90;;;;;;4901908;29;20024;-88
2020/12/12 00:12:24;;;;;;;18.42;10.55;;;4.50;99.90;;;;;;4887460;29;20103;-87
2020/12/12 00:14:51;;;;;;;14.93;9.80;;;4.50;99.90;;;;;;4848011;29;20033;-88
2020/12/12 00:17:19;;;;;;;16.65;10.85;;;4.60;99.90;;;;;;4848120;29;20105;-88
2020/12/12 00:19:45;;;;;;;18.45;11.25;;;4.60;99.90;;;;;;4863301;29;20041;-89
2020/12/12 00:22:11;;;;;;;16.55;10.02;;;4.60;99.90;;;;;;4847192;29;20030;-89
2020/12/12 00:24:40;;;;;;;17.25;11.13;;;4.60;99.90;;;;;;4848666;29;20187;-86
2020/12/12 00:27:09;;;;;;;16.73;10.68;;;4.50;99.90;;;;;;4856398;29;20033;-89
2020/12/12 00:29:35;;;;;;;16.02;10.63;;;4.60;99.90;;;;;;4855567;29;20069;-88
2020/12/12 00:32:10;;;;;;;18.05;10.40;;;4.60;99.90;;;;;;4854575;29;20038;-88
2020/12/12 00:35:00;;;;;;;16.35;10.70;;;4.60;99.90;;;;;;4870124;29;20499;-89
2020/12/12 00:37:26;;;;;;;15.38;10.27;;;4.60;99.90;;;;;;4881315;29;20041;-89
2020/12/12 00:39:53;;;;;;;15.85;11.13;;;4.60;99.90;;;;;;4822477;29;20047;-92
2020/12/12 00:42:19;;;;;;;16.75;10.27;;;4.70;99.90;;;;;;4817573;29;20042;-90
2020/12/12 00:44:50;;;;;;;17.15;11.00;;;4.70;99.90;;;;;;4808508;29;20103;-90
2020/12/12 00:47:19;;;;;;;15.25;9.55;;;4.70;99.90;;;;;;4878047;29;20112;-87
2020/12/12 00:49:44;;;;;;;15.57;9.95;;;4.70;99.90;;;;;;4862576;29;20799;-90
2020/12/12 00:52:13;;;;;;;15.65;10.70;;;4.70;99.90;;;;;;4863319;29;20069;-89
2020/12/12 00:54:39;;;;;;;14.30;9.55;;;4.80;99.90;;;;;;4878835;29;20054;-88
2020/12/12 00:57:10;;;;;;;15.27;9.90;;;4.80;99.90;;;;;;4863596;29;20029;-88
2020/12/12 00:59:40;;;;;;;15.30;9.10;;;4.90;99.90;;;;;;4865746;29;20077;-88
2020/12/12 01:02:08;;;;;;;14.52;10.05;;;4.80;99.90;;;;;;4865119;29;20136;-87
2020/12/12 01:04:34;;;;;;;15.00;9.82;;;4.90;99.90;;;;;;4862959;29;20030;-87
2020/12/12 01:07:01;;;;;;;14.93;10.02;;;4.90;99.90;;;;;;4848082;29;20045;-87
2020/12/12 01:09:27;;;;;;;14.85;9.90;;;4.90;99.90;;;;;;4859000;29;20115;-87
2020/12/12 01:11:57;;;;;;;14.85;9.05;;;4.90;99.90;;;;;;4878230;29;20059;-87
2020/12/12 01:14:42;;;;;;;14.73;8.85;;;4.90;99.90;;;;;;4887960;29;20029;-89
2020/12/12 01:17:12;;;;;;;16.58;9.70;;;4.90;99.90;;;;;;4875912;29;20062;-88
2020/12/12 01:19:40;;;;;;;15.68;10.73;;;4.90;99.90;;;;;;4915438;29;20025;-89
2020/12/12 01:22:06;;;;;;;15.15;9.77;;;4.90;99.90;;;;;;4908936;29;20052;-88
2020/12/12 01:24:36;;;;;;;14.65;9.18;;;4.90;99.90;;;;;;4883774;29;20136;-88
2020/12/12 01:27:05;;;;;;;14.43;9.75;;;4.90;99.90;;;;;;4881589;29;20029;-87
2020/12/12 01:29:32;;;;;;;14.85;9.52;;;5.00;99.90;;;;;;4875339;29;20037;-88
2020/12/12 01:31:59;;;;;;;14.63;9.43;;;5.00;99.90;;;;;;4870453;29;20041;-87
2020/12/12 01:34:33;;;;;;;13.65;8.77;;;5.00;99.90;;;;;;4884392;29;20155;-88
2020/12/12 01:36:59;;;;;;;14.73;9.32;;;5.00;99.90;;;;;;4882463;29;20074;-88
2020/12/12 01:39:31;;;;;;;18.38;10.82;;;5.00;99.90;;;;;;4882421;29;20037;-88
2020/12/12 01:41:56;;;;;;;11.77;8.88;;;5.10;99.90;;;;;;4881920;29;20087;-89
2020/12/12 01:44:25;;;;;;;14.63;9.73;;;5.00;99.90;;;;;;4919620;29;20040;-89
2020/12/12 01:46:55;;;;;;;16.55;9.55;;;5.00;99.90;;;;;;4900876;29;20041;-89
2020/12/12 01:49:22;;;;;;;15.15;9.82;;;5.00;99.90;;;;;;4916899;29;20036;-89
2020/12/12 01:52:00;;;;;;;16.60;9.77;;;5.00;99.90;;;;;;4892304;29;20396;-89
2020/12/12 01:54:27;;;;;;;14.38;10.10;;;5.10;99.90;;;;;;4890849;29;20051;-88
2020/12/12 01:56:54;;;;;;;14.18;9.95;;;5.10;99.90;;;;;;4895739;29;20051;-88
2020/12/12 01:59:20;;;;;;;15.23;9.52;;;5.10;99.90;;;;;;4917342;29;20059;-89
2020/12/12 02:01:57;;;;;;;14.43;9.77;;;5.20;99.90;;;;;;4911404;29;20065;-87
2020/12/12 02:04:25;;;;;;;14.88;10.10;;;5.10;99.90;;;;;;4915979;29;20021;-87
2020/12/12 02:06:54;;;;;;;15.43;9.57;;;5.10;99.90;;;;;;4887446;29;20432;-87
2020/12/12 02:09:22;;;;;;;13.32;10.18;;;5.10;99.90;;;;;;4906268;29;20041;-88
2020/12/12 02:11:50;;;;;;;17.23;9.57;;;5.10;99.90;;;;;;4884856;29;20064;-88
2020/12/12 02:14:18;;;;;;;15.07;9.32;;;5.10;99.90;;;;;;4893039;29;20147;-88
2020/12/12 02:17:13;;;;;;;14.32;9.90;;;5.10;99.90;;;;;;4871261;29;20101;-88
2020/12/12 02:19:40;;;;;;;15.00;9.75;;;5.10;99.90;;;;;;4879724;29;20029;-87
2020/12/12 02:22:08;;;;;;;14.25;9.23;;;5.10;99.90;;;;;;4869672;29;20106;-86
2020/12/12 02:24:37;;;;;;;14.65;10.48;;;5.20;99.90;;;;;;4859329;29;20189;-87
2020/12/12 02:27:04;;;;;;;14.25;9.77;;;5.20;99.90;;;;;;4883942;29;20072;-89
2020/12/12 02:29:47;;;;;;;15.95;10.20;;;5.20;99.90;;;;;;4877099;29;20069;-89
2020/12/12 02:32:27;;;;;;;15.68;10.00;;;5.20;99.90;;;;;;4890906;29;20032;-89
2020/12/12 02:34:53;;;;;;;16.55;10.77;;;5.20;99.90;;;;;;4873992;29;20029;-89
2020/12/12 02:37:20;;;;;;;13.35;9.25;;;5.20;99.90;;;;;;4874147;29;20072;-88
2020/12/12 02:39:47;;;;;;;15.27;10.18;;;5.20;99.90;;;;;;4869399;29;20041;-88
2020/12/12 02:42:19;;;;;;;18.33;10.70;;;5.20;99.90;;;;;;4877965;29;20052;-88
2020/12/12 02:44:51;;;;;;;14.50;9.50;;;5.20;99.90;;;;;;4868522;29;20124;-88
2020/12/12 02:47:18;;;;;;;16.55;10.55;;;5.10;99.90;;;;;;4859998;29;20033;-89
2020/12/12 02:49:55;;;;;;;15.50;10.32;;;5.20;99.90;;;;;;4864689;29;20032;-88
2020/12/12 02:52:23;;;;;;;16.63;11.20;;;5.20;99.90;;;;;;4848880;29;20053;-89
2020/12/12 02:54:51;;;;;;;16.50;11.18;;;5.30;99.90;;;;;;4863292;29;20641;-88
2020/12/12 02:57:17;;;;;;;17.65;11.18;;;5.30;99.90;;;;;;4877607;29;20051;-88
2020/12/12 02:59:43;;;;;;;16.65;11.52;;;5.30;99.90;;;;;;4863361;29;20119;-88
2020/12/12 03:02:12;;;;;;;19.02;12.20;;;5.30;99.90;;;;;;4863185;29;20428;-88
2020/12/12 03:04:38;;;;;;;19.05;12.52;;;5.40;99.90;;;;;;4894487;29;20127;-87
2020/12/12 03:07:04;;;;;;;19.08;11.75;;;5.40;99.90;;;;;;4883504;29;20105;-90
2020/12/12 03:09:30;;;;;;;18.63;11.93;;;5.30;99.90;;;;;;4889199;29;20051;-89
2020/12/12 03:11:56;;;;;;;16.55;10.90;;;5.40;99.90;;;;;;4919632;29;20107;-87
2020/12/12 03:14:23;;;;;;;17.65;11.38;;;5.40;99.90;;;;;;4871454;29;20040;-88
2020/12/12 03:16:51;;;;;;;16.73;11.15;;;5.40;99.90;;;;;;4879588;29;20028;-88
2020/12/12 03:19:17;;;;;;;17.90;11.70;;;5.40;99.90;;;;;;4884896;29;20537;-88
2020/12/12 03:21:43;;;;;;;19.50;11.75;;;5.40;99.90;;;;;;4900092;29;20114;-88
2020/12/12 03:24:09;;;;;;;15.75;10.88;;;5.40;99.90;;;;;;4900703;29;20059;-89
2020/12/12 03:26:34;;;;;;;18.75;11.77;;;5.50;99.90;;;;;;4900437;29;20035;-88
2020/12/12 03:29:00;;;;;;;17.02;11.35;;;5.40;99.90;;;;;;4899335;29;20047;-88
2020/12/12 03:31:27;;;;;;;19.98;12.30;;;5.50;99.90;;;;;;4915633;29;20570;-88
2020/12/12 03:33:53;;;;;;;19.77;12.45;;;5.50;99.90;;;;;;4884601;29;20320;-88
2020/12/12 03:36:22;;;;;;;16.88;11.18;;;5.50;99.90;;;;;;4883741;29;20040;-88
2020/12/12 03:38:48;;;;;;;17.13;11.52;;;5.50;99.90;;;;;;4885643;29;20485;-89
2020/12/12 03:41:14;;;;;;;18.77;12.00;;;5.50;99.90;;;;;;4894943;29;20103;-87
2020/12/12 03:43:40;;;;;;;18.27;11.68;;;5.50;99.90;;;;;;4921496;29;20044;-86
2020/12/12 03:46:05;;;;;;;20.65;12.88;;;5.60;99.90;;;;;;4913811;28;20020;-87
2020/12/12 03:48:34;;;;;;;18.55;11.00;;;5.50;99.90;;;;;;4939025;28;20047;-88
2020/12/12 03:51:00;;;;;;;20.02;12.43;;;5.50;99.90;;;;;;4882537;29;20038;-88
2020/12/12 03:53:25;;;;;;;19.17;12.52;;;5.50;99.90;;;;;;4889619;29;20052;-88
2020/12/12 03:55:51;;;;;;;21.00;13.40;;;5.50;99.90;;;;;;4904801;29;20055;-88
2020/12/12 03:58:22;;;;;;;17.42;12.10;;;5.50;99.90;;;;;;4878722;29;20222;-88
2020/12/12 04:00:49;;;;;;;;;;;5.50;99.90;;;;;;4861772;29;20033;-88
2020/12/12 04:03:17;;;;;;;17.83;12.07;;;5.60;99.90;;;;;;4848810;29;20264;-88
2020/12/12 04:05:46;;;;;;;17.55;11.02;;;5.50;99.90;;;;;;4819610;29;20048;-88
2020/12/12 04:08:18;;;;;;;21.60;13.63;;;5.60;99.90;;;;;;4870252;29;20109;-88
2020/12/12 04:10:45;;;;;;;20.55;12.93;;;5.60;99.90;;;;;;4854887;29;20066;-87
2020/12/12 04:13:10;;;;;;;18.95;12.35;;;5.50;99.90;;;;;;4835917;29;20434;-88
2020/12/12 04:15:36;;;;;;;20.75;12.95;;;5.60;99.90;;;;;;4822009;29;20046;-87
2020/12/12 04:18:10;;;;;;;22.23;13.55;;;5.60;99.90;;;;;;4806389;29;20052;-87
2020/12/12 04:20:35;;;;;;;21.98;13.48;;;5.60;99.90;;;;;;4858296;29;20044;-87
2020/12/12 04:23:01;;;;;;;22.15;14.07;;;5.60;99.90;;;;;;4822455;29;20132;-87
2020/12/12 04:25:28;;;;;;;22.13;13.80;;;5.60;99.90;;;;;;4835941;29;20534;-88
2020/12/12 04:27:54;;;;;;;22.63;14.05;;;5.50;99.90;;;;;;4842177;29;20340;-86
2020/12/12 04:30:21;;;;;;;23.35;15.02;;;5.50;99.90;;;;;;4872642;29;20129;-88
2020/12/12 04:32:47;;;;;;;22.90;14.15;;;5.50;99.90;;;;;;4870463;29;20653;-87
2020/12/12 04:35:18;;;;;;;22.50;14.18;;;5.50;99.90;;;;;;4877212;29;20120;-87
2020/12/12 04:37:44;;;;;;;21.60;14.55;;;5.50;99.90;;;;;;4877037;29;20253;-87
2020/12/12 04:40:10;;;;;;;24.77;14.68;;;5.60;99.90;;;;;;4863696;29;20029;-87
2020/12/12 04:42:37;;;;;;;26.00;16.27;;;5.50;99.90;;;;;;4894691;29;20163;-87
2020/12/12 04:45:04;;;;;;;35.85;15.10;;;5.50;99.90;;;;;;4880786;29;20062;-87
2020/12/12 04:47:30;;;;;;;24.85;14.60;;;5.50;99.90;;;;;;4904332;29;20512;-88
2020/12/12 04:49:59;;;;;;;22.08;13.52;;;5.50;99.90;;;;;;4879305;29;20069;-88
2020/12/12 04:52:31;;;;;;;23.38;14.40;;;5.50;99.90;;;;;;4890482;29;20473;-87
2020/12/12 04:55:04;;;;;;;21.60;13.45;;;5.60;99.90;;;;;;4887233;29;20097;-88
2020/12/12 04:57:38;;;;;;;23.08;14.43;;;5.60;99.90;;;;;;4877687;29;20108;-88
2020/12/12 05:00:10;;;;;;;22.60;14.20;;;5.60;99.90;;;;;;4859766;29;20167;-87
2020/12/12 05:02:40;;;;;;;23.33;14.05;;;5.60;99.90;;;;;;4844540;29;20075;-88
2020/12/12 05:05:08;;;;;;;24.17;14.60;;;5.60;99.90;;;;;;4869483;29;20121;-89
2020/12/12 05:07:35;;;;;;;22.70;14.65;;;5.60;99.90;;;;;;4872351;29;20041;-88
2020/12/12 05:10:01;;;;;;;22.25;13.27;;;5.60;99.90;;;;;;4827269;29;20121;-87
2020/12/12 05:12:28;;;;;;;24.15;13.90;;;5.70;99.90;;;;;;4859445;29;20169;-88
2020/12/12 05:14:58;;;;;;;24.02;13.95;;;5.70;99.90;;;;;;4861112;29;20059;-88
2020/12/12 05:17:25;;;;;;;23.15;14.30;;;5.70;99.90;;;;;;4833994;29;20121;-88
2020/12/12 05:19:52;;;;;;;23.17;14.57;;;5.70;99.90;;;;;;4846937;29;20045;-87
2020/12/12 05:22:19;;;;;;;23.15;14.02;;;5.70;99.90;;;;;;4839938;29;20099;-87
2020/12/12 05:24:47;;;;;;;21.48;14.07;;;5.70;99.90;;;;;;4849915;29;20038;-87
2020/12/12 05:27:13;;;;;;;25.23;13.77;;;5.70;99.90;;;;;;4846389;29;20477;-87
2020/12/12 05:29:41;;;;;;;23.10;13.48;;;5.70;99.90;;;;;;4842526;29;20128;-87
2020/12/12 05:32:06;;;;;;;24.10;14.55;;;5.80;99.90;;;;;;4899566;29;20189;-88
2020/12/12 05:34:37;;;;;;;20.50;13.55;;;5.80;99.90;;;;;;4868074;29;20518;-89
2020/12/12 05:37:04;;;;;;;21.25;13.07;;;5.80;99.90;;;;;;4919133;29;20043;-88
2020/12/12 05:39:33;;;;;;;21.48;13.23;;;5.80;99.90;;;;;;4916255;29;20024;-89
2020/12/12 05:42:07;;;;;;;20.55;13.10;;;5.80;99.90;;;;;;4910365;29;20051;-88
2020/12/12 05:44:33;;;;;;;21.92;13.15;;;5.80;99.90;;;;;;4914587;29;20061;-88
2020/12/12 05:47:01;;;;;;;21.50;15.35;;;5.80;99.90;;;;;;4915803;29;20028;-88
2020/12/12 05:49:28;;;;;;;21.70;13.55;;;5.80;99.90;;;;;;4892140;29;20036;-87
2020/12/12 05:51:57;;;;;;;20.33;13.82;;;5.90;99.90;;;;;;4847632;29;20415;-88
2020/12/12 05:54:24;;;;;;;21.35;12.98;;;5.80;99.90;;;;;;4828400;29;20054;-89
2020/12/12 05:56:51;;;;;;;21.65;13.45;;;5.80;99.90;;;;;;4846377;29;20033;-89
2020/12/12 05:59:18;;;;;;;20.13;13.30;;;5.90;99.90;;;;;;4850647;29;20093;-88
2020/12/12 06:01:53;;;;;;;20.45;12.35;;;5.90;99.90;;;;;;4860566;29;20046;-90
2020/12/12 06:04:24;;;;;;;21.20;12.77;;;5.90;99.90;;;;;;4877105;29;20042;-87
2020/12/12 06:06:56;;;;;;;19.65;12.52;;;5.90;99.90;;;;;;4880891;29;20324;-89
2020/12/12 06:09:35;;;;;;;21.77;13.65;;;5.90;99.90;;;;;;4860766;29;20042;-87
2020/12/12 06:12:12;;;;;;;19.88;12.80;;;5.90;99.90;;;;;;4869933;29;20460;-86
2020/12/12 06:14:38;;;;;;;21.23;13.70;;;5.90;99.90;;;;;;4890752;29;20238;-86
2020/12/12 06:17:10;;;;;;;20.95;12.70;;;5.90;99.90;;;;;;4857030;29;20044;-87
2020/12/12 06:19:39;;;;;;;19.17;11.90;;;5.90;99.90;;;;;;4881929;29;20064;-89
2020/12/12 06:22:21;;;;;;;19.13;12.43;;;5.90;99.90;;;;;;4857479;29;20048;-87
2020/12/12 06:24:57;;;;;;;20.65;12.85;;;6.00;99.90;;;;;;4905650;29;20035;-88
2020/12/12 06:27:25;;;;;;;22.10;13.55;;;6.00;99.90;;;;;;4924491;29;20598;-87
2020/12/12 06:29:52;;;;;;;18.33;12.13;;;6.00;99.90;;;;;;4892232;29;20118;-87
2020/12/12 06:32:20;;;;;;;20.35;13.02;;;6.00;99.90;;;;;;4934656;28;20016;-88
2020/12/12 06:34:51;;;;;;;19.42;12.98;;;6.00;99.90;;;;;;4923296;28;20068;-89
2020/12/12 06:37:39;;;;;;;19.42;12.57;;;6.00;99.90;;;;;;4897507;29;20141;-87
2020/12/12 06:40:10;;;;;;;18.23;11.45;;;6.00;99.90;;;;;;4881738;29;20038;-89
2020/12/12 06:42:43;;;;;;;19.40;11.73;;;6.00;99.90;;;;;;4889949;29;20029;-87
2020/12/12 06:45:18;;;;;;;17.08;11.60;;;6.00;99.90;;;;;;4874490;29;20259;-90
2020/12/12 06:47:50;;;;;;;20.15;12.73;;;6.00;99.90;;;;;;4850850;29;20072;-88
2020/12/12 06:50:25;;;;;;;18.20;11.43;;;6.10;99.90;;;;;;4853754;29;20046;-86
2020/12/12 06:52:52;;;;;;;18.88;12.25;;;6.00;99.90;;;;;;4876027;29;20069;-88
2020/12/12 06:55:20;;;;;;;17.88;12.10;;;6.00;99.90;;;;;;4880365;29;20091;-88
2020/12/12 06:57:49;;;;;;;20.08;13.35;;;6.10;99.90;;;;;;4876724;29;20072;-87
2020/12/12 07:00:32;;;;;;;20.60;13.00;;;6.00;99.90;;;;;;4843575;29;20033;-88
2020/12/12 07:03:19;;;;;;;19.85;12.82;;;6.10;99.90;;;;;;4867125;29;20116;-88
2020/12/12 07:05:48;;;;;;;20.08;12.45;;;6.10;99.90;;;;;;4825905;29;20034;-88
2020/12/12 07:08:20;;;;;;;18.67;12.27;;;6.00;99.90;;;;;;4802491;29;20046;-88
2020/12/12 07:10:48;;;;;;;20.50;14.02;;;6.10;99.90;;;;;;4792804;29;20099;-90
2020/12/12 07:13:20;;;;;;;21.20;13.98;;;6.00;99.90;;;;;;4818976;29;20099;-89
2020/12/12 07:15:46;;;;;;;24.48;15.02;;;6.00;99.90;;;;;;4821960;29;20034;-87
2020/12/12 07:18:14;;;;;;;24.88;15.40;;;6.00;99.90;;;;;;4798054;29;20050;-89
2020/12/12 07:23:21;;;;;;;25.83;16.00;;;5.90;99.90;;;;;;4996313;23;20049;-88
2020/12/12 07:25:51;;;;;;;27.02;16.23;;;5.80;99.90;;;;;;4976545;28;20054;-88
2020/12/12 07:28:19;;;;;;;29.40;18.58;;;5.80;99.90;;;;;;4956795;28;20078;-89
2020/12/12 07:30:47;;;;;;;26.23;16.38;;;5.80;99.90;;;;;;4946626;29;20114;-90
2020/12/12 07:33:16;;;;;;;29.25;16.85;;;5.80;99.90;;;;;;4947246;29;20038;-89
2020/12/12 07:35:49;;;;;;;27.73;15.50;;;5.70;99.90;;;;;;4968734;28;20046;-90
2020/12/12 07:38:27;;;;;;;30.17;17.33;;;5.70;99.90;;;;;;4963223;28;20039;-90
2020/12/12 07:40:53;;;;;;;33.55;17.80;;;5.80;99.90;;;;;;4968718;28;20103;-90
2020/12/12 07:43:20;;;;;;;31.70;16.95;;;5.70;99.90;;;;;;4972051;28;20035;-89
2020/12/12 07:48:21;;;;;;;32.17;17.77;;;5.70;99.90;;;;;;4977598;28;20050;-90
2020/12/12 07:50:48;;;;;;;31.85;18.00;;;5.70;99.90;;;;;;4955816;29;20030;-91
2020/12/12 07:53:27;;;;;;;54.53;18.17;;;5.80;99.90;;;;;;4945267;28;20031;-90
2020/12/12 07:56:09;;;;;;;36.20;20.40;;;5.70;99.90;;;;;;4949485;28;20031;-91
2020/12/12 07:58:37;;;;;;;30.67;19.05;;;5.80;99.90;;;;;;4961345;28;20015;-90
2020/12/12 08:01:09;;;;;;;35.40;19.92;;;5.80;99.90;;;;;;4977434;28;20015;-90
2020/12/12 08:03:46;;;;;;;37.72;20.30;;;5.80;99.90;;;;;;4977787;28;20050;-90
2020/12/12 08:06:13;;;;;;;29.95;17.52;;;5.80;99.90;;;;;;4966528;28;20022;-91
2020/12/12 08:08:39;;;;;;;30.08;18.70;;;5.80;99.90;;;;;;4944245;28;20092;-90
2020/12/12 08:11:06;;;;;;;32.63;17.40;;;5.90;99.90;;;;;;4919435;29;20047;-90
2020/12/12 08:13:35;;;;;;;36.10;18.73;;;5.90;99.90;;;;;;4926412;28;20294;-90
2020/12/12 08:16:13;;;;;;;33.72;19.15;;;5.90;99.90;;;;;;4924708;28;20095;-92
2020/12/12 08:18:43;;;;;;;34.28;17.70;;;5.90;99.90;;;;;;4950504;28;20040;-90
2020/12/12 08:21:18;;;;;;;37.78;18.05;;;6.00;99.90;;;;;;4922276;29;20096;-91
2020/12/12 08:23:49;;;;;;;34.78;18.67;;;5.90;99.90;;;;;;4934460;28;20087;-91
2020/12/12 08:26:21;;;;;;;36.78;17.98;;;6.00;99.90;;;;;;4916279;29;20039;-91
2020/12/12 08:28:53;;;;;;;33.72;18.10;;;6.10;99.90;;;;;;4915644;29;20048;-90
2020/12/12 08:31:43;;;;;;;36.67;18.75;;;6.00;99.90;;;;;;4930451;29;20036;-88
2020/12/12 08:34:19;;;;;;;31.77;17.90;;;6.00;99.90;;;;;;4910314;29;20040;-90
2020/12/12 08:36:46;;;;;;;29.33;17.23;;;6.10;99.90;;;;;;4936395;28;20055;-90
2020/12/12 08:39:13;;;;;;;31.25;18.10;;;6.10;99.90;;;;;;4900494;29;20041;-90
2020/12/12 08:41:45;;;;;;;32.50;17.83;;;6.10;99.90;;;;;;4881856;29;20033;-90
2020/12/12 08:44:26;;;;;;;30.52;17.05;;;6.20;99.90;;;;;;4835833;29;20030;-91
2020/12/12 08:46:53;;;;;;;26.83;16.40;;;6.20;99.90;;;;;;5168094;23;20103;-89
2020/12/12 08:49:25;;;;;;;36.95;18.45;;;6.10;99.90;;;;;;5021216;23;20051;-90
2020/12/12 08:51:55;;;;;;;27.58;15.90;;;6.20;99.90;;;;;;4941215;28;20072;-90
2020/12/12 08:54:22;;;;;;;25.88;16.73;;;6.20;99.90;;;;;;4910453;28;20062;-90
2020/12/12 08:56:47;;;;;;;31.45;19.05;;;6.20;99.90;;;;;;4938006;28;20116;-90
2020/12/12 08:59:20;;;;;;;35.70;20.48;;;6.20;99.90;;;;;;4920359;28;20028;-90
2020/12/12 09:04:37;;;;;;;28.13;16.08;;;6.30;99.90;;;;;;1406099;23;20043;-89
2020/12/12 09:07:05;;;;;;;31.08;16.75;;;6.30;99.90;;;;;;4999343;28;20042;-90
2020/12/12 09:09:36;;;;;;;31.02;17.55;;;6.30;99.90;;;;;;4993003;28;20032;-90
2020/12/12 09:12:15;;;;;;;31.50;18.38;;;6.30;99.90;;;;;;4979036;29;20031;-90
2020/12/12 09:14:49;;;;;;;32.45;16.40;;;6.30;99.90;;;;;;4985410;28;20348;-90
2020/12/12 09:17:18;;;;;;;31.52;18.08;;;6.30;99.90;;;;;;4935593;28;20040;-90
2020/12/12 09:20:10;;;;;;;33.13;18.00;;;6.40;99.90;;;;;;4956319;28;20027;-91
2020/12/12 09:22:36;;;;;;;30.60;17.67;;;6.40;99.90;;;;;;4987545;28;20158;-90
2020/12/12 09:25:14;;;;;;;32.20;17.08;;;6.40;99.90;;;;;;4978233;28;20033;-88
2020/12/12 09:30:11;;;;;;;35.15;17.75;;;6.50;99.90;;;;;;5052344;23;20031;-88
2020/12/12 09:35:05;;;;;;;37.17;16.35;;;6.50;99.90;;;;;;5040952;23;20058;-90
2020/12/12 09:37:36;;;;;;;35.65;18.63;;;6.60;99.90;;;;;;5028288;28;20050;-91
2020/12/12 09:40:03;;;;;;;28.88;17.85;;;6.60;99.90;;;;;;4966502;29;20036;-92
2020/12/12 09:42:38;;;;;;;31.67;17.42;;;6.60;99.90;;;;;;4954953;29;20050;-91
2020/12/12 09:45:07;;;;;;;31.08;17.15;;;6.60;99.90;;;;;;4960545;29;20057;-91
2020/12/12 09:47:37;;;;;;;29.73;18.25;;;6.70;99.90;;;;;;4969651;29;20164;-91
2020/12/12 09:50:06;;;;;;;36.35;17.80;;;6.70;99.90;;;;;;4941964;29;20036;-91
2020/12/12 09:52:32;;;;;;;31.88;17.02;;;6.70;99.90;;;;;;4922273;29;20044;-90
2020/12/12 09:54:58;;;;;;;27.20;15.80;;;6.70;99.90;;;;;;4921212;29;20594;-90
2020/12/12 09:57:29;;;;;;;23.80;14.82;;;6.80;99.90;;;;;;4917718;29;20452;-91
2020/12/12 09:59:57;;;;;;;35.72;16.67;;;6.80;99.90;;;;;;4920513;29;20100;-92
2020/12/12 10:02:30;;;;;;;24.48;14.65;;;6.80;99.90;;;;;;4921846;29;20028;-90
2020/12/12 10:08:40;;;;;;;28.03;17.23;;;6.80;99.90;;;;;;4916159;29;20115;-91
2020/12/12 10:11:17;;;;;;;32.72;18.23;;;6.80;99.90;;;;;;4915175;29;20306;-89
2020/12/12 10:13:46;;;;;;;32.78;17.05;;;6.90;99.90;;;;;;4899478;29;20045;-91
2020/12/12 10:16:18;;;;;;;28.92;16.65;;;6.90;99.90;;;;;;4859485;29;20029;-89
2020/12/12 10:18:47;;;;;;;27.00;16.75;;;6.90;99.90;;;;;;4880449;29;20052;-92
2020/12/12 10:21:14;;;;;;;28.83;16.60;;;6.90;99.90;;;;;;4887333;29;20020;-91
2020/12/12 10:23:41;;;;;;;26.67;14.73;;;6.90;99.90;;;;;;4915403;29;20490;-90
2020/12/12 10:26:10;;;;;;;24.50;14.70;;;6.90;99.90;;;;;;4876645;29;20049;-91
2020/12/12 10:28:40;;;;;;;33.13;15.52;;;6.90;99.90;;;;;;4867319;29;20467;-90
2020/12/12 10:31:07;;;;;;;30.33;16.75;;;6.90;99.90;;;;;;4847771;29;20381;-90
2020/12/12 10:33:33;;;;;;;29.02;16.38;;;6.90;99.90;;;;;;4864785;29;20510;-90
2020/12/12 10:35:59;;;;;;;23.90;16.58;;;6.90;99.90;;;;;;4842570;29;20065;-90
2020/12/12 10:38:28;;;;;;;31.10;15.98;;;6.90;99.90;;;;;;4816349;29;20046;-92
2020/12/12 10:41:04;;;;;;;30.42;15.73;;;6.80;99.90;;;;;;4814123;29;20054;-90
2020/12/12 10:43:30;;;;;;;27.52;15.95;;;6.90;99.90;;;;;;4818907;29;20109;-92
2020/12/12 10:46:02;;;;;;;31.20;17.17;;;6.90;99.90;;;;;;4853882;29;20057;-91
2020/12/12 10:48:32;;;;;;;26.05;14.18;;;7.00;99.90;;;;;;4854431;29;20057;-92
2020/12/12 10:51:03;;;;;;;30.65;16.50;;;7.10;99.90;;;;;;4865068;29;20044;-91
2020/12/12 10:53:44;;;;;;;24.55;14.55;;;7.10;99.90;;;;;;4824768;29;20048;-92
2020/12/12 10:56:11;;;;;;;28.23;15.20;;;7.10;99.90;;;;;;4872375;29;20093;-91
2020/12/12 10:58:38;;;;;;;29.75;15.77;;;7.10;99.90;;;;;;4877748;29;20064;-92
2020/12/12 11:01:04;;;;;;;32.22;18.55;;;7.10;99.90;;;;;;4845889;29;20065;-91
2020/12/12 11:03:32;;;;;;;32.85;21.05;;;7.20;99.90;;;;;;4857922;29;20054;-91
2020/12/12 11:05:59;;;;;;;39.08;23.33;;;7.30;99.90;;;;;;4882089;29;20045;-91
2020/12/12 11:08:28;;;;;;;30.52;18.05;;;7.30;99.90;;;;;;4865733;29;20017;-91
2020/12/12 11:11:06;;;;;;;32.92;18.45;;;7.30;99.90;;;;;;4868228;29;20049;-92
2020/12/12 11:13:36;;;;;;;27.35;16.92;;;7.30;99.90;;;;;;4875411;29;20097;-93
2020/12/12 11:16:12;;;;;;;27.42;17.33;;;7.30;99.90;;;;;;4882291;29;20025;-93
2020/12/12 11:18:39;;;;;;;28.83;16.63;;;7.40;99.90;;;;;;4932197;23;20055;-90
2020/12/12 11:21:09;;;;;;;33.60;19.30;;;7.40;99.90;;;;;;4954796;29;20040;-94
2020/12/12 11:23:41;;;;;;;34.10;16.55;;;7.50;99.90;;;;;;4880371;29;20033;-92
2020/12/12 11:26:11;;;;;;;33.95;18.27;;;7.60;99.90;;;;;;4974411;23;20051;-92
2020/12/12 11:28:48;;;;;;;34.90;18.80;;;7.50;99.90;;;;;;4943010;28;20056;-93
2020/12/12 11:31:21;;;;;;;25.55;15.50;;;7.70;99.90;;;;;;4953194;28;20096;-93
2020/12/12 11:33:56;;;;;;;27.13;16.13;;;7.70;99.90;;;;;;4945613;29;20095;-90
2020/12/12 11:42:37;;;;;;;34.63;18.77;;;7.80;99.90;;;;;;4934979;29;20050;-90
2020/12/12 11:47:53;;;;;;;29.38;18.77;;;7.90;99.90;;;;;;4917690;29;20513;-90
2020/12/12 11:50:24;;;;;;;26.45;16.02;;;7.90;99.90;;;;;;4904495;29;20048;-91
2020/12/12 11:52:54;;;;;;;28.05;16.50;;;7.80;99.90;;;;;;4906456;29;20107;-93
2020/12/12 11:56:22;;;;;;;;;;;;;;;;;;;;;
2020/12/12 11:58:52;;;;;;;25.40;16.20;;;7.70;99.90;;;;;;4868570;29;20025;-90
2020/12/12 12:07:25;;;;;;;30.35;16.00;;;7.70;99.90;;;;;;4942317;29;20026;-90
2020/12/12 12:12:30;;;;;;;32.58;16.55;;;7.80;99.90;;;;;;5293960;23;19930;-93
2020/12/12 12:15:00;;;;;;;30.17;17.58;;;7.90;99.90;;;;;;4936107;29;20041;-93
2020/12/12 12:17:40;;;;;;;25.17;16.83;;;7.90;99.90;;;;;;4923842;28;20059;-91
2020/12/12 12:20:21;;;;;;;30.83;17.30;;;7.90;99.90;;;;;;4970188;28;20090;-92
2020/12/12 12:32:07;;;;;;;29.00;18.52;;;8.10;99.90;;;;;;4934496;28;20064;-94
2020/12/12 12:34:56;;;;;;;26.92;15.90;;;8.10;99.90;;;;;;4917443;29;20048;-90
2020/12/12 12:37:42;;;;;;;23.85;14.50;;;8.10;99.90;;;;;;4916031;29;20108;-87
2020/12/12 12:40:16;;;;;;;27.05;16.17;;;8.10;99.90;;;;;;4900424;29;20074;-89
2020/12/12 12:42:42;;;;;;;25.60;16.05;;;8.20;99.90;;;;;;4899868;29;20020;-88
2020/12/12 12:45:21;;;;;;;28.75;15.95;;;8.10;99.90;;;;;;4914864;29;20059;-91
2020/12/12 12:47:48;;;;;;;22.90;14.18;;;8.10;99.90;;;;;;4923086;29;20054;-91
2020/12/12 12:50:14;;;;;;;25.83;16.83;;;8.00;99.90;;;;;;4921632;29;20028;-92
2020/12/12 12:52:50;;;;;;;26.67;15.70;;;8.10;99.90;;;;;;4907832;29;20016;-92
2020/12/12 12:55:23;;;;;;;25.80;16.02;;;8.10;99.90;;;;;;4918898;29;20048;-89
2020/12/12 12:58:28;;;;;;;26.40;15.50;;;8.10;99.90;;;;;;4910093;29;20032;-91
2020/12/12 13:01:00;;;;;;;29.17;16.63;;;8.10;99.90;;;;;;4919624;29;20039;-90
2020/12/12 13:03:36;;;;;;;29.10;16.48;;;8.00;99.90;;;;;;4907431;29;20036;-90
2020/12/12 13:06:12;;;;;;;25.15;15.55;;;8.10;99.90;;;;;;4917460;29;20035;-88
2020/12/12 13:09:08;;;;;;;24.30;15.80;;;8.00;99.90;;;;;;4881507;29;20047;-92
2020/12/12 13:12:08;;;;;;;25.90;15.85;;;8.00;99.90;;;;;;4898217;29;20107;-89
2020/12/12 13:14:37;;;;;;;24.15;15.25;;;8.00;99.90;;;;;;4881759;29;20128;-91
2020/12/12 13:19:48;;;;;;;26.77;15.38;;;8.00;99.90;;;;;;4923715;29;20076;-91
2020/12/12 13:22:17;;;;;;;25.05;14.95;;;8.00;99.90;;;;;;4906382;29;20032;-92
2020/12/12 13:24:45;;;;;;;23.42;15.27;;;8.00;99.90;;;;;;4939905;29;20038;-91
2020/12/12 13:27:12;;;;;;;26.02;16.33;;;8.00;99.90;;;;;;4880781;29;20044;-90
2020/12/12 13:33:09;;;;;;;27.35;17.30;;;8.10;99.90;;;;;;4892198;29;20242;-90
2020/12/12 13:35:37;;;;;;;28.60;19.08;;;8.10;99.90;;;;;;4868311;29;20061;-89
2020/12/12 13:38:25;;;;;;;23.08;15.27;;;8.20;99.90;;;;;;4892965;29;20037;-89
2020/12/12 13:41:04;;;;;;;19.80;14.85;;;8.30;99.90;;;;;;4904432;29;20036;-91
2020/12/12 13:43:41;;;;;;;21.88;13.93;;;8.20;99.90;;;;;;4882624;29;20033;-89
2020/12/12 13:46:09;;;;;;;23.77;15.70;;;8.30;99.90;;;;;;4876995;29;20041;-90